Webcam Flughafen St.Gallen-Altenrhein

Live-Bilder und Zeitraffer LSZR / ACH.

 

Live aus Altenrhein
LIVE
LSZR 170520Z AUTO 10005KT 1900 R10/1000U -SN BKN011 BKN013 M02/M02 Q1016 REFZDZ
Zeitraffer heute
2021-01-17 00:14:09
LSZR 162250Z AUTO 11002KT 4400 BR SCT060 BKN070 M05/M05 Q1020